sensor_id;sensor_type;location;lat;lon;timestamp;pressure;altitude;pressure_sealevel;temperature;humidity
22047;BME280;11187;49.412;20.956;2023-08-21T00:01:20;95703.41;;;18.58;100.00
22047;BME280;11187;49.412;20.956;2023-08-21T00:03:53;95705.22;;;18.56;100.00
22047;BME280;11187;49.412;20.956;2023-08-21T00:06:40;95702.72;;;18.53;100.00
22047;BME280;11187;49.412;20.956;2023-08-21T00:09:13;95710.59;;;18.51;100.00
22047;BME280;11187;49.412;20.956;2023-08-21T00:12:07;95709.81;;;18.49;100.00
22047;BME280;11187;49.412;20.956;2023-08-21T00:14:40;95706.47;;;18.46;100.00
22047;BME280;11187;49.412;20.956;2023-08-21T00:17:27;95706.56;;;18.44;100.00
22047;BME280;11187;49.412;20.956;2023-08-21T00:20:01;95703.09;;;18.44;100.00
22047;BME280;11187;49.412;20.956;2023-08-21T00:22:49;95704.06;;;18.41;100.00
22047;BME280;11187;49.412;20.956;2023-08-21T00:25:22;95708.41;;;18.41;100.00
22047;BME280;11187;49.412;20.956;2023-08-21T00:28:09;95706.78;;;18.38;100.00
22047;BME280;11187;49.412;20.956;2023-08-21T00:30:42;95706.75;;;18.40;100.00
22047;BME280;11187;49.412;20.956;2023-08-21T00:33:36;95698.09;;;18.39;100.00
22047;BME280;11187;49.412;20.956;2023-08-21T00:36:30;95699.16;;;18.35;100.00
22047;BME280;11187;49.412;20.956;2023-08-21T00:39:03;95699.31;;;18.30;100.00
22047;BME280;11187;49.412;20.956;2023-08-21T00:41:50;95696.84;;;18.27;100.00
22047;BME280;11187;49.412;20.956;2023-08-21T00:44:23;95700.34;;;18.26;100.00
22047;BME280;11187;49.412;20.956;2023-08-21T00:47:17;95699.59;;;18.23;100.00
22047;BME280;11187;49.412;20.956;2023-08-21T00:50:11;95699.75;;;18.20;100.00
22047;BME280;11187;49.412;20.956;2023-08-21T00:53:05;95701.53;;;18.18;100.00
22047;BME280;11187;49.412;20.956;2023-08-21T00:55:59;95699.09;;;18.14;100.00
22047;BME280;11187;49.412;20.956;2023-08-21T00:58:53;95706.06;;;18.12;100.00
22047;BME280;11187;49.412;20.956;2023-08-21T01:01:47;95701.94;;;18.07;100.00
22047;BME280;11187;49.412;20.956;2023-08-21T01:04:21;95702.78;;;18.07;100.00
22047;BME280;11187;49.412;20.956;2023-08-21T01:07:14;95698.56;;;18.05;100.00
22047;BME280;11187;49.412;20.956;2023-08-21T01:10:01;95702.91;;;18.04;100.00
22047;BME280;11187;49.412;20.956;2023-08-21T01:13:09;95699.59;;;18.01;100.00
22047;BME280;11187;49.412;20.956;2023-08-21T01:15:48;95694.53;;;17.98;100.00
22047;BME280;11187;49.412;20.956;2023-08-21T01:18:38;95696.28;;;17.97;100.00
22047;BME280;11187;49.412;20.956;2023-08-21T01:21:12;95694.66;;;17.94;100.00
22047;BME280;11187;49.412;20.956;2023-08-21T01:24:07;95699.88;;;17.93;100.00
22047;BME280;11187;49.412;20.956;2023-08-21T01:27:01;95695.81;;;17.87;100.00
22047;BME280;11187;49.412;20.956;2023-08-21T01:29:35;95692.41;;;17.85;100.00
22047;BME280;11187;49.412;20.956;2023-08-21T01:32:31;95687.28;;;17.84;100.00
22047;BME280;11187;49.412;20.956;2023-08-21T01:35:29;95686.59;;;17.79;100.00
22047;BME280;11187;49.412;20.956;2023-08-21T01:38:24;95696.16;;;17.77;100.00
22047;BME280;11187;49.412;20.956;2023-08-21T01:40:57;95697.97;;;17.74;100.00
22047;BME280;11187;49.412;20.956;2023-08-21T01:43:44;95703.28;;;17.71;100.00
22047;BME280;11187;49.412;20.956;2023-08-21T01:46:18;95700.78;;;17.68;100.00
22047;BME280;11187;49.412;20.956;2023-08-21T01:49:04;95701.69;;;17.67;100.00
22047;BME280;11187;49.412;20.956;2023-08-21T01:51:37;95711.22;;;17.67;100.00
22047;BME280;11187;49.412;20.956;2023-08-21T01:54:24;95706.97;;;17.64;100.00
22047;BME280;11187;49.412;20.956;2023-08-21T01:56:58;95710.41;;;17.65;100.00
22047;BME280;11187;49.412;20.956;2023-08-21T01:59:51;95719.91;;;17.64;100.00
22047;BME280;11187;49.412;20.956;2023-08-21T02:02:45;95714.69;;;17.66;100.00
22047;BME280;11187;49.412;20.956;2023-08-21T02:05:19;95718.97;;;17.67;100.00
22047;BME280;11187;49.412;20.956;2023-08-21T02:08:06;95715.53;;;17.66;100.00
22047;BME280;11187;49.412;20.956;2023-08-21T02:10:49;95716.44;;;17.65;100.00
22047;BME280;11187;49.412;20.956;2023-08-21T02:13:36;95713.19;;;17.60;100.00
22047;BME280;11187;49.412;20.956;2023-08-21T02:16:10;95709.78;;;17.58;100.00
22047;BME280;11187;49.412;20.956;2023-08-21T02:18:56;95715.97;;;17.54;100.00
22047;BME280;11187;49.412;20.956;2023-08-21T02:21:43;95717.78;;;17.52;100.00
22047;BME280;11187;49.412;20.956;2023-08-21T02:24:37;95718.69;;;17.51;100.00
22047;BME280;11187;49.412;20.956;2023-08-21T02:27:11;95712.63;;;17.50;100.00
22047;BME280;11187;49.412;20.956;2023-08-21T02:30:05;95712.81;;;17.46;100.00
22047;BME280;11187;49.412;20.956;2023-08-21T02:32:40;95718.06;;;17.44;100.00
22047;BME280;11187;49.412;20.956;2023-08-21T02:35:33;95717.16;;;17.45;100.00
22047;BME280;11187;49.412;20.956;2023-08-21T02:38:07;95721.44;;;17.46;100.00
22047;BME280;11187;49.412;20.956;2023-08-21T02:40:53;95720.53;;;17.47;100.00
22047;BME280;11187;49.412;20.956;2023-08-21T02:43:27;95723.06;;;17.49;100.00
22047;BME280;11187;49.412;20.956;2023-08-21T02:46:20;95722.94;;;17.52;100.00
22047;BME280;11187;49.412;20.956;2023-08-21T02:49:14;95719.44;;;17.53;100.00
22047;BME280;11187;49.412;20.956;2023-08-21T02:52:08;95717.72;;;17.53;100.00
22047;BME280;11187;49.412;20.956;2023-08-21T02:54:42;95711.69;;;17.53;100.00
22047;BME280;11187;49.412;20.956;2023-08-21T02:57:35;95706.59;;;17.51;100.00
22047;BME280;11187;49.412;20.956;2023-08-21T03:00:29;95705.97;;;17.45;100.00
22047;BME280;11187;49.412;20.956;2023-08-21T03:03:05;95708.63;;;17.42;100.00
22047;BME280;11187;49.412;20.956;2023-08-21T03:05:52;95704.38;;;17.41;100.00
22047;BME280;11187;49.412;20.956;2023-08-21T03:08:26;95710.50;;;17.38;100.00
22047;BME280;11187;49.412;20.956;2023-08-21T03:11:12;95711.47;;;17.36;100.00
22047;BME280;11187;49.412;20.956;2023-08-21T03:13:46;95703.78;;;17.32;100.00
22047;BME280;11187;49.412;20.956;2023-08-21T03:16:32;95713.41;;;17.29;100.00
22047;BME280;11187;49.412;20.956;2023-08-21T03:19:06;95707.44;;;17.27;100.00
22047;BME280;11187;49.412;20.956;2023-08-21T03:21:59;95703.16;;;17.26;100.00
22047;BME280;11187;49.412;20.956;2023-08-21T03:24:53;95704.91;;;17.25;100.00
22047;BME280;11187;49.412;20.956;2023-08-21T03:27:47;95710.91;;;17.26;100.00
22047;BME280;11187;49.412;20.956;2023-08-21T03:30:22;95703.22;;;17.24;100.00
22047;BME280;11187;49.412;20.956;2023-08-21T03:33:08;95702.44;;;17.22;100.00
22047;BME280;11187;49.412;20.956;2023-08-21T03:35:42;95708.44;;;17.23;100.00
22047;BME280;11187;49.412;20.956;2023-08-21T03:38:35;95707.63;;;17.22;100.00
22047;BME280;11187;49.412;20.956;2023-08-21T03:41:29;95704.28;;;17.19;100.00
22047;BME280;11187;49.412;20.956;2023-08-21T03:44:03;95706.94;;;17.17;100.00
22047;BME280;11187;49.412;20.956;2023-08-21T03:46:49;95713.09;;;17.13;100.00
22047;BME280;11187;49.412;20.956;2023-08-21T03:49:23;95705.34;;;17.13;100.00
22047;BME280;11187;49.412;20.956;2023-08-21T03:52:10;95705.34;;;17.13;100.00
22047;BME280;11187;49.412;20.956;2023-08-21T03:54:44;95705.34;;;17.13;100.00
22047;BME280;11187;49.412;20.956;2023-08-21T03:57:30;95704.56;;;17.11;100.00
22047;BME280;11187;49.412;20.956;2023-08-21T04:00:07;95706.34;;;17.09;100.00
22047;BME280;11187;49.412;20.956;2023-08-21T04:02:54;95710.53;;;17.13;100.00
22047;BME280;11187;49.412;20.956;2023-08-21T04:05:28;95713.00;;;17.16;100.00
22047;BME280;11187;49.412;20.956;2023-08-21T04:08:22;95707.78;;;17.18;100.00
22047;BME280;11187;49.412;20.956;2023-08-21T04:11:15;95709.41;;;17.20;100.00
22047;BME280;11187;49.412;20.956;2023-08-21T04:13:49;95707.72;;;17.19;100.00
22047;BME280;11187;49.412;20.956;2023-08-21T04:16:42;95701.69;;;17.19;100.00
22047;BME280;11187;49.412;20.956;2023-08-21T04:19:36;95706.03;;;17.18;100.00
22047;BME280;11187;49.412;20.956;2023-08-21T04:22:30;95706.06;;;17.17;100.00
22047;BME280;11187;49.412;20.956;2023-08-21T04:25:04;95706.88;;;17.19;100.00
22047;BME280;11187;49.412;20.956;2023-08-21T04:27:58;95706.03;;;17.18;100.00
22047;BME280;11187;49.412;20.956;2023-08-21T04:30:54;95701.75;;;17.17;100.00
22047;BME280;11187;49.412;20.956;2023-08-21T04:33:28;95705.16;;;17.19;100.00
22047;BME280;11187;49.412;20.956;2023-08-21T04:36:22;95702.59;;;17.18;100.00
22047;BME280;11187;49.412;20.956;2023-08-21T04:38:56;95712.94;;;17.18;100.00
22047;BME280;11187;49.412;20.956;2023-08-21T04:41:42;95715.50;;;17.19;100.00
22047;BME280;11187;49.412;20.956;2023-08-21T04:44:16;95712.81;;;17.21;100.00
22047;BME280;11187;49.412;20.956;2023-08-21T04:47:25;95708.50;;;17.21;100.00
22047;BME280;11187;49.412;20.956;2023-08-21T04:50:02;95712.75;;;17.24;100.00
22047;BME280;11187;49.412;20.956;2023-08-21T04:52:48;95714.38;;;17.26;100.00
22047;BME280;11187;49.412;20.956;2023-08-21T04:55:23;95701.31;;;17.29;100.00
22047;BME280;11187;49.412;20.956;2023-08-21T04:58:09;95705.38;;;17.37;100.00
22047;BME280;11187;49.412;20.956;2023-08-21T05:00:44;95707.63;;;17.46;100.00
22047;BME280;11187;49.412;20.956;2023-08-21T05:03:31;95706.41;;;17.56;100.00
22047;BME280;11187;49.412;20.956;2023-08-21T05:06:05;95704.31;;;17.66;100.00
22047;BME280;11187;49.412;20.956;2023-08-21T05:08:58;95711.66;;;17.78;100.00
22047;BME280;11187;49.412;20.956;2023-08-21T05:11:32;95719.03;;;17.89;100.00
22047;BME280;11187;49.412;20.956;2023-08-21T05:14:25;95716.97;;;17.99;100.00
22047;BME280;11187;49.412;20.956;2023-08-21T05:17:19;95711.34;;;18.09;100.00
22047;BME280;11187;49.412;20.956;2023-08-21T05:19:53;95713.53;;;18.20;100.00
22047;BME280;11187;49.412;20.956;2023-08-21T05:22:41;95718.31;;;18.31;100.00
22047;BME280;11187;49.412;20.956;2023-08-21T05:25:14;95713.53;;;18.42;100.00
22047;BME280;11187;49.412;20.956;2023-08-21T05:28:07;95712.22;;;18.54;100.00
22047;BME280;11187;49.412;20.956;2023-08-21T05:30:41;95711.78;;;18.65;100.00
22047;BME280;11187;49.412;20.956;2023-08-21T05:33:28;95710.38;;;18.78;100.00
22047;BME280;11187;49.412;20.956;2023-08-21T05:36:02;95716.09;;;18.86;100.00
22047;BME280;11187;49.412;20.956;2023-08-21T05:38:49;95718.22;;;18.98;100.00
22047;BME280;11187;49.412;20.956;2023-08-21T05:41:24;95722.09;;;19.09;100.00
22047;BME280;11187;49.412;20.956;2023-08-21T05:44:18;95718.13;;;19.20;100.00
22047;BME280;11187;49.412;20.956;2023-08-21T05:47:12;95716.84;;;19.31;100.00
22047;BME280;11187;49.412;20.956;2023-08-21T05:49:46;95721.53;;;19.41;100.00
22047;BME280;11187;49.412;20.956;2023-08-21T05:52:33;95724.50;;;19.53;100.00
22047;BME280;11187;49.412;20.956;2023-08-21T05:55:09;95725.66;;;19.66;100.00
22047;BME280;11187;49.412;20.956;2023-08-21T05:57:55;95726.06;;;19.77;100.00
22047;BME280;11187;49.412;20.956;2023-08-21T06:00:29;95721.16;;;19.90;100.00
22047;BME280;11187;49.412;20.956;2023-08-21T06:03:15;95720.59;;;20.02;100.00
22047;BME280;11187;49.412;20.956;2023-08-21T06:05:49;95713.06;;;20.15;100.00
22047;BME280;11187;49.412;20.956;2023-08-21T06:08:35;95709.88;;;20.28;100.00
22047;BME280;11187;49.412;20.956;2023-08-21T06:11:09;95707.63;;;20.39;100.00
22047;BME280;11187;49.412;20.956;2023-08-21T06:13:55;95710.50;;;20.52;100.00
22047;BME280;11187;49.412;20.956;2023-08-21T06:16:29;95702.88;;;20.66;100.00
22047;BME280;11187;49.412;20.956;2023-08-21T06:19:25;95710.94;;;20.79;100.00
22047;BME280;11187;49.412;20.956;2023-08-21T06:22:12;95713.78;;;20.92;100.00
22047;BME280;11187;49.412;20.956;2023-08-21T06:25:08;95719.22;;;21.04;100.00
22047;BME280;11187;49.412;20.956;2023-08-21T06:28:01;95717.69;;;21.18;100.00
22047;BME280;11187;49.412;20.956;2023-08-21T06:30:56;95711.84;;;21.30;100.00
22047;BME280;11187;49.412;20.956;2023-08-21T06:33:54;95708.72;;;21.41;100.00
22047;BME280;11187;49.412;20.956;2023-08-21T06:36:27;95717.66;;;21.53;100.00
22047;BME280;11187;49.412;20.956;2023-08-21T06:39:14;95710.22;;;21.62;100.00
22047;BME280;11187;49.412;20.956;2023-08-21T06:41:48;95710.50;;;21.74;100.00
22047;BME280;11187;49.412;20.956;2023-08-21T06:44:34;95711.00;;;21.80;100.00
22047;BME280;11187;49.412;20.956;2023-08-21T06:47:08;95708.75;;;21.90;100.00
22047;BME280;11187;49.412;20.956;2023-08-21T06:50:01;95716.84;;;22.01;100.00
22047;BME280;11187;49.412;20.956;2023-08-21T06:52:55;95704.97;;;22.11;100.00
22047;BME280;11187;49.412;20.956;2023-08-21T06:55:49;95713.06;;;22.23;100.00
22047;BME280;11187;49.412;20.956;2023-08-21T06:58:23;95705.50;;;22.34;100.00
22047;BME280;11187;49.412;20.956;2023-08-21T07:01:16;95707.50;;;22.45;100.00
22047;BME280;11187;49.412;20.956;2023-08-21T07:04:10;95708.69;;;22.55;100.00
22047;BME280;11187;49.412;20.956;2023-08-21T07:06:44;95713.56;;;22.61;100.00
22047;BME280;11187;49.412;20.956;2023-08-21T07:09:37;95712.63;;;22.62;100.00
22047;BME280;11187;49.412;20.956;2023-08-21T07:12:11;95710.03;;;22.62;100.00
22047;BME280;11187;49.412;20.956;2023-08-21T07:14:58;95707.16;;;22.67;100.00
22047;BME280;11187;49.412;20.956;2023-08-21T07:17:32;95707.72;;;22.72;100.00
22047;BME280;11187;49.412;20.956;2023-08-21T07:20:18;95716.88;;;22.79;100.00
22047;BME280;11187;49.412;20.956;2023-08-21T07:23:12;95717.88;;;22.92;100.00
22047;BME280;11187;49.412;20.956;2023-08-21T07:25:46;95711.94;;;23.05;100.00
22047;BME280;11187;49.412;20.956;2023-08-21T07:28:32;95719.16;;;23.16;100.00
22047;BME280;11187;49.412;20.956;2023-08-21T07:31:06;95718.63;;;23.25;100.00
22047;BME280;11187;49.412;20.956;2023-08-21T07:33:55;95721.53;;;23.34;100.00
22047;BME280;11187;49.412;20.956;2023-08-21T07:36:31;95725.56;;;23.40;100.00
22047;BME280;11187;49.412;20.956;2023-08-21T07:39:25;95723.22;;;23.50;100.00
22047;BME280;11187;49.412;20.956;2023-08-21T07:41:59;95729.50;;;23.62;100.00
22047;BME280;11187;49.412;20.956;2023-08-21T07:44:55;95723.75;;;23.71;100.00
22047;BME280;11187;49.412;20.956;2023-08-21T07:47:28;95727.28;;;23.84;100.00
22047;BME280;11187;49.412;20.956;2023-08-21T07:50:16;95731.88;;;23.95;100.00
22047;BME280;11187;49.412;20.956;2023-08-21T07:52:50;95731.00;;;24.09;100.00
22047;BME280;11187;49.412;20.956;2023-08-21T07:55:39;95719.88;;;24.20;100.00
22047;BME280;11187;49.412;20.956;2023-08-21T07:58:13;95723.50;;;24.31;100.00
22047;BME280;11187;49.412;20.956;2023-08-21T08:01:00;95718.63;;;24.39;100.00
22047;BME280;11187;49.412;20.956;2023-08-21T08:03:34;95719.91;;;24.47;100.00
22047;BME280;11187;49.412;20.956;2023-08-21T08:06:20;95710.00;;;24.52;100.00
22047;BME280;11187;49.412;20.956;2023-08-21T08:08:54;95712.56;;;24.66;100.00
22047;BME280;11187;49.412;20.956;2023-08-21T08:11:43;95712.94;;;24.74;100.00
22047;BME280;11187;49.412;20.956;2023-08-21T08:14:17;95716.00;;;24.81;100.00
22047;BME280;11187;49.412;20.956;2023-08-21T08:17:03;95715.06;;;24.95;100.00
22047;BME280;11187;49.412;20.956;2023-08-21T08:19:37;95711.75;;;25.06;100.00
22047;BME280;11187;49.412;20.956;2023-08-21T08:22:23;95732.84;;;25.17;100.00
22047;BME280;11187;49.412;20.956;2023-08-21T08:24:57;95730.88;;;25.20;100.00
22047;BME280;11187;49.412;20.956;2023-08-21T08:27:52;95720.00;;;25.27;100.00
22047;BME280;11187;49.412;20.956;2023-08-21T08:30:26;95715.69;;;25.26;99.82
22047;BME280;11187;49.412;20.956;2023-08-21T08:33:12;95718.94;;;25.29;100.00
22047;BME280;11187;49.412;20.956;2023-08-21T08:35:46;95713.59;;;25.31;99.38
22047;BME280;11187;49.412;20.956;2023-08-21T08:38:35;95713.59;;;25.31;98.64
22047;BME280;11187;49.412;20.956;2023-08-21T08:41:14;95718.44;;;25.37;99.33
22047;BME280;11187;49.412;20.956;2023-08-21T08:44:04;95719.69;;;25.44;94.69
22047;BME280;11187;49.412;20.956;2023-08-21T08:46:39;95721.88;;;25.50;95.84
22047;BME280;11187;49.412;20.956;2023-08-21T08:49:26;95713.81;;;25.53;93.89
22047;BME280;11187;49.412;20.956;2023-08-21T08:52:00;95712.47;;;25.60;93.94
22047;BME280;11187;49.412;20.956;2023-08-21T08:54:48;95711.63;;;25.60;92.42
22047;BME280;11187;49.412;20.956;2023-08-21T08:57:21;95716.88;;;25.60;92.79
22047;BME280;11187;49.412;20.956;2023-08-21T09:00:09;95717.94;;;25.57;92.51
22047;BME280;11187;49.412;20.956;2023-08-21T09:02:43;95715.31;;;25.57;90.91
22047;BME280;11187;49.412;20.956;2023-08-21T09:05:33;95716.03;;;25.59;90.99
22047;BME280;11187;49.412;20.956;2023-08-21T09:08:13;95722.53;;;25.67;90.40
22047;BME280;11187;49.412;20.956;2023-08-21T09:11:02;95714.44;;;25.70;90.00
22047;BME280;11187;49.412;20.956;2023-08-21T09:13:38;95716.66;;;25.76;89.81
22047;BME280;11187;49.412;20.956;2023-08-21T09:16:31;95720.31;;;25.86;88.40
22047;BME280;11187;49.412;20.956;2023-08-21T09:19:25;95717.94;;;25.96;88.72
22047;BME280;11187;49.412;20.956;2023-08-21T09:22:19;95714.97;;;26.00;89.44
22047;BME280;11187;49.412;20.956;2023-08-21T09:25:13;95716.66;;;26.01;89.08
22047;BME280;11187;49.412;20.956;2023-08-21T09:27:51;95710.56;;;26.01;88.71
22047;BME280;11187;49.412;20.956;2023-08-21T09:30:51;95718.94;;;26.06;86.62
22047;BME280;11187;49.412;20.956;2023-08-21T09:33:24;95710.97;;;26.08;87.01
22047;BME280;11187;49.412;20.956;2023-08-21T09:36:18;95715.41;;;26.07;87.12
22047;BME280;11187;49.412;20.956;2023-08-21T09:39:15;95705.81;;;26.06;86.67
22047;BME280;11187;49.412;20.956;2023-08-21T09:41:56;95703.94;;;26.08;86.84
22047;BME280;11187;49.412;20.956;2023-08-21T09:44:43;95701.41;;;26.07;89.08
22047;BME280;11187;49.412;20.956;2023-08-21T09:47:20;95695.22;;;26.08;88.68
22047;BME280;11187;49.412;20.956;2023-08-21T09:50:09;95702.28;;;26.07;87.89
22047;BME280;11187;49.412;20.956;2023-08-21T09:52:43;95702.28;;;26.07;89.03
22047;BME280;11187;49.412;20.956;2023-08-21T09:55:55;95699.00;;;26.03;87.39
22047;BME280;11187;49.412;20.956;2023-08-21T09:58:29;95695.44;;;26.04;86.73
22047;BME280;11187;49.412;20.956;2023-08-21T10:01:24;95699.94;;;26.02;87.54
22047;BME280;11187;49.412;20.956;2023-08-21T10:04:21;95699.56;;;25.96;88.30
22047;BME280;11187;49.412;20.956;2023-08-21T10:07:16;95700.81;;;25.90;86.95
22047;BME280;11187;49.412;20.956;2023-08-21T10:09:50;95698.59;;;25.84;86.65
22047;BME280;11187;49.412;20.956;2023-08-21T10:12:43;95699.75;;;25.80;86.07
22047;BME280;11187;49.412;20.956;2023-08-21T10:15:38;95699.75;;;25.80;88.74
22047;BME280;11187;49.412;20.956;2023-08-21T10:18:36;95691.16;;;25.78;88.23
22047;BME280;11187;49.412;20.956;2023-08-21T10:21:16;95698.16;;;25.77;87.46
22047;BME280;11187;49.412;20.956;2023-08-21T10:24:26;95697.16;;;25.80;88.22
22047;BME280;11187;49.412;20.956;2023-08-21T10:27:29;95688.94;;;25.84;88.42
22047;BME280;11187;49.412;20.956;2023-08-21T10:30:24;95691.28;;;25.89;86.31
22047;BME280;11187;49.412;20.956;2023-08-21T10:32:59;95689.41;;;25.91;88.26
22047;BME280;11187;49.412;20.956;2023-08-21T10:35:46;95690.09;;;25.93;88.49
22047;BME280;11187;49.412;20.956;2023-08-21T10:38:20;95690.72;;;25.97;88.75
22047;BME280;11187;49.412;20.956;2023-08-21T10:41:07;95686.13;;;26.00;88.46
22047;BME280;11187;49.412;20.956;2023-08-21T10:43:42;95693.44;;;26.08;89.16
22047;BME280;11187;49.412;20.956;2023-08-21T10:46:49;95693.53;;;26.07;87.49
22047;BME280;11187;49.412;20.956;2023-08-21T10:49:23;95698.69;;;26.08;86.52
22047;BME280;11187;49.412;20.956;2023-08-21T10:52:12;95691.97;;;26.04;85.89
22047;BME280;11187;49.412;20.956;2023-08-21T10:54:59;95695.75;;;26.00;84.72
22047;BME280;11187;49.412;20.956;2023-08-21T10:57:47;95696.63;;;26.00;86.39
22047;BME280;11187;49.412;20.956;2023-08-21T11:00:21;95689.56;;;26.01;85.02
22047;BME280;11187;49.412;20.956;2023-08-21T11:03:15;95691.38;;;26.00;85.69
22047;BME280;11187;49.412;20.956;2023-08-21T11:06:09;95686.94;;;26.01;84.51
22047;BME280;11187;49.412;20.956;2023-08-21T11:09:04;95687.78;;;26.01;86.47
22047;BME280;11187;49.412;20.956;2023-08-21T11:11:58;95686.00;;;26.02;87.34
22047;BME280;11187;49.412;20.956;2023-08-21T11:14:32;95685.25;;;26.00;85.96
22047;BME280;11187;49.412;20.956;2023-08-21T11:17:26;95689.06;;;25.96;85.77
22047;BME280;11187;49.412;20.956;2023-08-21T11:20:01;95685.91;;;25.91;85.31
22047;BME280;11187;49.412;20.956;2023-08-21T11:22:59;95690.56;;;25.87;85.78
22047;BME280;11187;49.412;20.956;2023-08-21T11:25:54;95688.81;;;25.86;86.06
22047;BME280;11187;49.412;20.956;2023-08-21T11:28:45;95683.56;;;25.86;87.67
22047;BME280;11187;49.412;20.956;2023-08-21T11:31:39;95687.16;;;25.85;86.68
22047;BME280;11187;49.412;20.956;2023-08-21T11:34:18;95683.41;;;25.89;87.61
22047;BME280;11187;49.412;20.956;2023-08-21T11:37:14;95689.25;;;25.93;87.93
22047;BME280;11187;49.412;20.956;2023-08-21T11:40:09;95680.25;;;25.97;87.27
22047;BME280;11187;49.412;20.956;2023-08-21T11:42:43;95684.31;;;26.01;88.42
22047;BME280;11187;49.412;20.956;2023-08-21T11:45:29;95687.88;;;26.00;88.19
22047;BME280;11187;49.412;20.956;2023-08-21T11:48:23;95693.34;;;25.97;89.69
22047;BME280;11187;49.412;20.956;2023-08-21T11:51:16;95687.47;;;25.93;89.02
22047;BME280;11187;49.412;20.956;2023-08-21T11:53:51;95687.78;;;25.89;91.61
22047;BME280;11187;49.412;20.956;2023-08-21T11:56:39;95684.53;;;25.85;91.05
22047;BME280;11187;49.412;20.956;2023-08-21T11:59:23;95690.94;;;25.81;90.43
22047;BME280;11187;49.412;20.956;2023-08-21T12:02:22;95685.91;;;25.78;91.13
22047;BME280;11187;49.412;20.956;2023-08-21T12:05:06;95681.72;;;25.75;90.90
22047;BME280;11187;49.412;20.956;2023-08-21T12:08:00;95680.13;;;25.73;90.41
22047;BME280;11187;49.412;20.956;2023-08-21T12:10:34;95688.84;;;25.73;91.81
22047;BME280;11187;49.412;20.956;2023-08-21T12:13:28;95681.31;;;25.69;91.57
22047;BME280;11187;49.412;20.956;2023-08-21T12:16:23;95682.25;;;25.68;93.85
22047;BME280;11187;49.412;20.956;2023-08-21T12:18:57;95682.34;;;25.66;94.13
22047;BME280;11187;49.412;20.956;2023-08-21T12:21:43;95683.41;;;25.63;94.12
22047;BME280;11187;49.412;20.956;2023-08-21T12:24:17;95680.78;;;25.63;94.05
22047;BME280;11187;49.412;20.956;2023-08-21T12:27:04;95679.94;;;25.63;93.67
22047;BME280;11187;49.412;20.956;2023-08-21T12:29:37;95685.91;;;25.65;92.19
22047;BME280;11187;49.412;20.956;2023-08-21T12:32:26;95679.94;;;25.63;92.50
22047;BME280;11187;49.412;20.956;2023-08-21T12:35:00;95678.16;;;25.63;92.58
22047;BME280;11187;49.412;20.956;2023-08-21T12:37:46;95675.66;;;25.62;94.23
22047;BME280;11187;49.412;20.956;2023-08-21T12:40:20;95673.88;;;25.62;93.57
22047;BME280;11187;49.412;20.956;2023-08-21T12:43:06;95671.25;;;25.62;94.39
22047;BME280;11187;49.412;20.956;2023-08-21T12:45:40;95679.94;;;25.63;94.15
22047;BME280;11187;49.412;20.956;2023-08-21T12:48:28;95674.78;;;25.61;94.70
22047;BME280;11187;49.412;20.956;2023-08-21T12:51:01;95675.66;;;25.62;94.71
22047;BME280;11187;49.412;20.956;2023-08-21T12:53:49;95670.28;;;25.63;92.40
22047;BME280;11187;49.412;20.956;2023-08-21T12:56:22;95671.53;;;25.71;93.07
22047;BME280;11187;49.412;20.956;2023-08-21T12:59:09;95668.19;;;25.69;92.09
22047;BME280;11187;49.412;20.956;2023-08-21T13:01:45;95668.81;;;25.72;92.93
22047;BME280;11187;49.412;20.956;2023-08-21T13:04:38;95672.16;;;25.74;91.69
22047;BME280;11187;49.412;20.956;2023-08-21T13:07:32;95665.75;;;25.78;92.87
22047;BME280;11187;49.412;20.956;2023-08-21T13:10:06;95667.56;;;25.78;92.10
22047;BME280;11187;49.412;20.956;2023-08-21T13:13:01;95661.34;;;25.79;89.66
22047;BME280;11187;49.412;20.956;2023-08-21T13:15:54;95662.19;;;25.79;89.39
22047;BME280;11187;49.412;20.956;2023-08-21T13:18:50;95661.34;;;25.79;90.41
22047;BME280;11187;49.412;20.956;2023-08-21T13:21:43;95651.91;;;25.76;90.31
22047;BME280;11187;49.412;20.956;2023-08-21T13:24:37;95651.28;;;25.73;90.18
22047;BME280;11187;49.412;20.956;2023-08-21T13:27:11;95642.69;;;25.71;90.19
22047;BME280;11187;49.412;20.956;2023-08-21T13:30:05;95646.25;;;25.70;90.51
22047;BME280;11187;49.412;20.956;2023-08-21T13:32:39;95649.63;;;25.72;91.23
22047;BME280;11187;49.412;20.956;2023-08-21T13:35:26;95641.00;;;25.70;92.00
22047;BME280;11187;49.412;20.956;2023-08-21T13:37:59;95643.75;;;25.68;89.95
22047;BME280;11187;49.412;20.956;2023-08-21T13:40:53;95637.06;;;25.64;90.77
22047;BME280;11187;49.412;20.956;2023-08-21T13:43:47;95639.88;;;25.61;90.85
22047;BME280;11187;49.412;20.956;2023-08-21T13:46:41;95636.66;;;25.57;91.55
22047;BME280;11187;49.412;20.956;2023-08-21T13:49:14;95635.91;;;25.55;92.03
22047;BME280;11187;49.412;20.956;2023-08-21T13:52:01;95641.47;;;25.51;92.14
22047;BME280;11187;49.412;20.956;2023-08-21T13:54:34;95645.03;;;25.50;92.25
22047;BME280;11187;49.412;20.956;2023-08-21T13:57:21;95638.44;;;25.44;92.47
22047;BME280;11187;49.412;20.956;2023-08-21T13:59:54;95630.66;;;25.42;91.53
22047;BME280;11187;49.412;20.956;2023-08-21T14:02:41;95632.56;;;25.40;92.12
22047;BME280;11187;49.412;20.956;2023-08-21T14:05:14;95628.28;;;25.39;92.73
22047;BME280;11187;49.412;20.956;2023-08-21T14:08:01;95626.69;;;25.37;93.05
22047;BME280;11187;49.412;20.956;2023-08-21T14:10:34;95621.66;;;25.34;92.02
22047;BME280;11187;49.412;20.956;2023-08-21T14:13:21;95621.03;;;25.30;93.17